sensor_id;sensor_type;location;lat;lon;timestamp;pressure;altitude;pressure_sealevel;temperature;humidity
46782;BME280;32541;46.298;11.506;2023-01-28T00:02:06;89072.66;;;-4.99;81.66
46782;BME280;32541;46.298;11.506;2023-01-28T00:04:32;89065.84;;;-5.00;81.94
46782;BME280;32541;46.298;11.506;2023-01-28T00:06:58;89064.38;;;-4.96;81.87
46782;BME280;32541;46.298;11.506;2023-01-28T00:09:23;89059.00;;;-5.01;82.06
46782;BME280;32541;46.298;11.506;2023-01-28T00:11:49;89059.81;;;-5.12;82.26
46782;BME280;32541;46.298;11.506;2023-01-28T00:14:16;89055.44;;;-5.15;81.65
46782;BME280;32541;46.298;11.506;2023-01-28T00:16:41;89060.56;;;-5.17;82.02
46782;BME280;32541;46.298;11.506;2023-01-28T00:19:07;89050.81;;;-5.15;82.83
46782;BME280;32541;46.298;11.506;2023-01-28T00:21:33;89047.16;;;-5.17;81.72
46782;BME280;32541;46.298;11.506;2023-01-28T00:23:58;89049.84;;;-5.17;81.91
46782;BME280;32541;46.298;11.506;2023-01-28T00:26:24;89055.44;;;-5.15;83.03
46782;BME280;32541;46.298;11.506;2023-01-28T00:28:50;89059.81;;;-5.12;81.83
46782;BME280;32541;46.298;11.506;2023-01-28T00:31:16;89061.53;;;-5.15;81.72
46782;BME280;32541;46.298;11.506;2023-01-28T00:33:44;89057.22;;;-5.29;82.71
46782;BME280;32541;46.298;11.506;2023-01-28T00:36:10;89062.56;;;-5.34;82.46
46782;BME280;32541;46.298;11.506;2023-01-28T00:38:36;89072.56;;;-5.35;83.49
46782;BME280;32541;46.298;11.506;2023-01-28T00:41:12;89064.06;;;-5.39;83.48
46782;BME280;32541;46.298;11.506;2023-01-28T00:43:39;89066.22;;;-5.32;82.97
46782;BME280;32541;46.298;11.506;2023-01-28T00:46:06;89064.25;;;-5.26;82.97
46782;BME280;32541;46.298;11.506;2023-01-28T00:48:33;89075.44;;;-5.22;81.01
46782;BME280;32541;46.298;11.506;2023-01-28T00:50:59;89080.81;;;-5.27;81.67
46782;BME280;32541;46.298;11.506;2023-01-28T00:53:24;89080.75;;;-5.16;81.49
46782;BME280;32541;46.298;11.506;2023-01-28T00:55:50;89084.97;;;-5.37;81.88
46782;BME280;32541;46.298;11.506;2023-01-28T00:58:15;89082.09;;;-5.45;82.74
46782;BME280;32541;46.298;11.506;2023-01-28T01:00:40;89075.56;;;-5.49;81.95
46782;BME280;32541;46.298;11.506;2023-01-28T01:03:06;89076.25;;;-5.43;82.17
46782;BME280;32541;46.298;11.506;2023-01-28T01:05:31;89074.31;;;-5.48;82.35
46782;BME280;32541;46.298;11.506;2023-01-28T01:07:58;89082.34;;;-5.48;82.70
46782;BME280;32541;46.298;11.506;2023-01-28T01:10:23;89084.56;;;-5.58;82.78
46782;BME280;32541;46.298;11.506;2023-01-28T01:12:49;89090.19;;;-5.73;84.34
46782;BME280;32541;46.298;11.506;2023-01-28T01:15:16;89086.81;;;-5.73;84.45
46782;BME280;32541;46.298;11.506;2023-01-28T01:17:43;89087.00;;;-5.60;84.03
46782;BME280;32541;46.298;11.506;2023-01-28T01:20:21;89078.75;;;-5.62;83.90
46782;BME280;32541;46.298;11.506;2023-01-28T01:22:47;89085.03;;;-5.48;83.64
46782;BME280;32541;46.298;11.506;2023-01-28T01:25:14;89074.09;;;-5.50;82.88
46782;BME280;32541;46.298;11.506;2023-01-28T01:27:40;89086.28;;;-5.49;83.12
46782;BME280;32541;46.298;11.506;2023-01-28T01:30:06;89090.13;;;-5.39;83.39
46782;BME280;32541;46.298;11.506;2023-01-28T01:32:33;89092.88;;;-5.67;83.98
46782;BME280;32541;46.298;11.506;2023-01-28T01:35:00;89090.22;;;-5.78;84.80
46782;BME280;32541;46.298;11.506;2023-01-28T01:37:26;89100.44;;;-5.77;85.77
46782;BME280;32541;46.298;11.506;2023-01-28T01:39:51;89091.38;;;-5.51;84.33
46782;BME280;32541;46.298;11.506;2023-01-28T01:42:17;89087.50;;;-5.62;85.06
46782;BME280;32541;46.298;11.506;2023-01-28T01:44:58;89094.09;;;-5.63;85.17
46782;BME280;32541;46.298;11.506;2023-01-28T01:50:17;89089.22;;;-5.58;84.29
46782;BME280;32541;46.298;11.506;2023-01-28T01:52:50;89091.31;;;-5.40;83.78
46782;BME280;32541;46.298;11.506;2023-01-28T01:55:19;89096.91;;;-5.33;83.38
46782;BME280;32541;46.298;11.506;2023-01-28T01:57:47;89095.97;;;-5.35;84.10
46782;BME280;32541;46.298;11.506;2023-01-28T02:00:14;89090.81;;;-5.28;83.76
46782;BME280;32541;46.298;11.506;2023-01-28T02:02:43;89089.88;;;-5.36;83.72
46782;BME280;32541;46.298;11.506;2023-01-28T02:05:11;89085.97;;;-5.35;83.77
46782;BME280;32541;46.298;11.506;2023-01-28T02:07:37;89086.69;;;-5.40;84.02
46782;BME280;32541;46.298;11.506;2023-01-28T02:10:04;89078.38;;;-5.25;83.68
46782;BME280;32541;46.298;11.506;2023-01-28T02:12:40;89087.19;;;-5.36;84.13
46782;BME280;32541;46.298;11.506;2023-01-28T02:15:13;89083.03;;;-5.37;84.59
46782;BME280;32541;46.298;11.506;2023-01-28T02:17:41;89081.56;;;-5.32;83.29
46782;BME280;32541;46.298;11.506;2023-01-28T02:20:08;89096.16;;;-5.28;84.26
46782;BME280;32541;46.298;11.506;2023-01-28T02:31:28;89091.13;;;-5.53;85.64
46782;BME280;32541;46.298;11.506;2023-01-28T02:34:02;89096.00;;;-5.46;85.08
46782;BME280;32541;46.298;11.506;2023-01-28T02:39:35;89094.53;;;-5.47;85.51
46782;BME280;32541;46.298;11.506;2023-01-28T02:42:11;89094.72;;;-5.29;85.46
46782;BME280;32541;46.298;11.506;2023-01-28T02:44:40;89087.66;;;-5.26;84.93
46782;BME280;32541;46.298;11.506;2023-01-28T02:47:10;89087.66;;;-5.37;85.10
46782;BME280;32541;46.298;11.506;2023-01-28T02:49:58;89081.59;;;-5.38;84.33
46782;BME280;32541;46.298;11.506;2023-01-28T02:53:05;89082.78;;;-5.33;84.37
46782;BME280;32541;46.298;11.506;2023-01-28T02:56:01;89092.03;;;-5.34;83.94
46782;BME280;32541;46.298;11.506;2023-01-28T02:58:45;89091.59;;;-5.44;83.86
46782;BME280;32541;46.298;11.506;2023-01-28T03:01:25;89095.72;;;-5.43;84.32
46782;BME280;32541;46.298;11.506;2023-01-28T03:06:30;89095.28;;;-5.52;83.85
46782;BME280;32541;46.298;11.506;2023-01-28T03:09:00;89101.84;;;-5.48;83.21
46782;BME280;32541;46.298;11.506;2023-01-28T03:14:39;89093.84;;;-5.76;84.44
46782;BME280;32541;46.298;11.506;2023-01-28T03:17:29;89105.78;;;-5.66;83.68
46782;BME280;32541;46.298;11.506;2023-01-28T03:20:15;89105.28;;;-5.58;82.81
46782;BME280;32541;46.298;11.506;2023-01-28T03:23:04;89107.25;;;-5.65;82.46
46782;BME280;32541;46.298;11.506;2023-01-28T03:25:53;89113.06;;;-5.61;82.64
46782;BME280;32541;46.298;11.506;2023-01-28T03:28:41;89119.19;;;-5.82;84.13
46782;BME280;32541;46.298;11.506;2023-01-28T03:31:26;89118.44;;;-5.72;83.61
46782;BME280;32541;46.298;11.506;2023-01-28T03:34:11;89113.56;;;-5.79;84.42
46782;BME280;32541;46.298;11.506;2023-01-28T03:36:56;89112.66;;;-5.87;85.00
46782;BME280;32541;46.298;11.506;2023-01-28T03:39:27;89110.19;;;-5.85;84.26
46782;BME280;32541;46.298;11.506;2023-01-28T03:44:27;89118.69;;;-5.81;83.91
46782;BME280;32541;46.298;11.506;2023-01-28T03:47:11;89123.38;;;-5.92;84.74
46782;BME280;32541;46.298;11.506;2023-01-28T03:49:39;89126.06;;;-5.98;84.27
46782;BME280;32541;46.298;11.506;2023-01-28T03:52:04;89126.78;;;-5.97;84.20
46782;BME280;32541;46.298;11.506;2023-01-28T03:54:29;89124.34;;;-5.90;83.52
46782;BME280;32541;46.298;11.506;2023-01-28T03:56:55;89132.38;;;-5.90;83.43
46782;BME280;32541;46.298;11.506;2023-01-28T03:59:20;89126.28;;;-6.07;83.92
46782;BME280;32541;46.298;11.506;2023-01-28T04:01:46;89133.13;;;-6.06;83.91
46782;BME280;32541;46.298;11.506;2023-01-28T04:04:11;89136.03;;;-6.04;82.75
46782;BME280;32541;46.298;11.506;2023-01-28T04:06:48;89128.25;;;-6.07;82.74
46782;BME280;32541;46.298;11.506;2023-01-28T04:09:13;89129.22;;;-6.05;81.73
46782;BME280;32541;46.298;11.506;2023-01-28T04:11:38;89146.47;;;-6.17;82.71
46782;BME280;32541;46.298;11.506;2023-01-28T04:14:04;89142.34;;;-6.18;82.50
46782;BME280;32541;46.298;11.506;2023-01-28T04:16:29;89141.88;;;-6.22;82.01
46782;BME280;32541;46.298;11.506;2023-01-28T04:18:54;89151.59;;;-6.25;82.10
46782;BME280;32541;46.298;11.506;2023-01-28T04:21:22;89150.13;;;-6.31;81.92
46782;BME280;32541;46.298;11.506;2023-01-28T04:23:47;89147.44;;;-6.31;81.89
46782;BME280;32541;46.298;11.506;2023-01-28T04:26:12;89149.63;;;-6.35;81.01
46782;BME280;32541;46.298;11.506;2023-01-28T04:28:38;89150.84;;;-6.36;81.07
46782;BME280;32541;46.298;11.506;2023-01-28T04:31:03;89163.50;;;-6.31;80.48
46782;BME280;32541;46.298;11.506;2023-01-28T04:33:28;89154.97;;;-6.46;80.82
46782;BME280;32541;46.298;11.506;2023-01-28T04:35:54;89165.94;;;-6.39;81.23
46782;BME280;32541;46.298;11.506;2023-01-28T04:38:19;89166.16;;;-6.42;81.75
46782;BME280;32541;46.298;11.506;2023-01-28T04:40:48;89170.53;;;-6.39;81.14
46782;BME280;32541;46.298;11.506;2023-01-28T04:43:13;89167.38;;;-6.43;80.69
46782;BME280;32541;46.298;11.506;2023-01-28T04:45:39;89166.91;;;-6.47;80.43
46782;BME280;32541;46.298;11.506;2023-01-28T04:48:04;89179.25;;;-6.55;80.31
46782;BME280;32541;46.298;11.506;2023-01-28T04:50:30;89180.00;;;-6.49;80.21
46782;BME280;32541;46.298;11.506;2023-01-28T04:52:55;89185.09;;;-6.57;80.62
46782;BME280;32541;46.298;11.506;2023-01-28T04:55:20;89189.72;;;-6.57;80.74
46782;BME280;32541;46.298;11.506;2023-01-28T04:57:46;89190.47;;;-6.51;80.56
46782;BME280;32541;46.298;11.506;2023-01-28T05:00:13;89201.59;;;-6.58;81.61
46782;BME280;32541;46.298;11.506;2023-01-28T05:02:38;89198.66;;;-6.71;81.57
46782;BME280;32541;46.298;11.506;2023-01-28T05:05:04;89196.22;;;-6.81;82.47
46782;BME280;32541;46.298;11.506;2023-01-28T05:07:33;89200.53;;;-6.89;82.47
46782;BME280;32541;46.298;11.506;2023-01-28T05:09:59;89212.94;;;-6.86;81.69
46782;BME280;32541;46.298;11.506;2023-01-28T05:12:24;89208.53;;;-6.94;81.83
46782;BME280;32541;46.298;11.506;2023-01-28T05:14:50;89205.66;;;-6.85;81.37
46782;BME280;32541;46.298;11.506;2023-01-28T05:17:15;89213.94;;;-6.83;81.74
46782;BME280;32541;46.298;11.506;2023-01-28T05:19:40;89212.25;;;-6.81;80.93
46782;BME280;32541;46.298;11.506;2023-01-28T05:22:06;89218.56;;;-6.78;81.01
46782;BME280;32541;46.298;11.506;2023-01-28T05:24:31;89218.50;;;-6.95;81.14
46782;BME280;32541;46.298;11.506;2023-01-28T05:26:56;89214.66;;;-6.83;80.36
46782;BME280;32541;46.298;11.506;2023-01-28T05:29:22;89216.13;;;-6.82;79.64
46782;BME280;32541;46.298;11.506;2023-01-28T05:31:47;89211.75;;;-6.85;79.73
46782;BME280;32541;46.298;11.506;2023-01-28T05:34:12;89207.09;;;-6.95;80.38
46782;BME280;32541;46.298;11.506;2023-01-28T05:36:38;89210.94;;;-7.07;80.55
46782;BME280;32541;46.298;11.506;2023-01-28T05:39:05;89210.94;;;-7.07;80.28
46782;BME280;32541;46.298;11.506;2023-01-28T05:41:32;89214.06;;;-7.09;80.34
46782;BME280;32541;46.298;11.506;2023-01-28T05:43:57;89219.19;;;-7.05;80.07
46782;BME280;32541;46.298;11.506;2023-01-28T05:46:23;89213.81;;;-7.11;80.33
46782;BME280;32541;46.298;11.506;2023-01-28T05:48:49;89228.34;;;-7.17;80.12
46782;BME280;32541;46.298;11.506;2023-01-28T05:51:15;89231.25;;;-7.21;80.27
46782;BME280;32541;46.298;11.506;2023-01-28T05:53:41;89243.16;;;-7.22;80.64
46782;BME280;32541;46.298;11.506;2023-01-28T05:56:07;89239.19;;;-6.90;91.33
46782;BME280;32541;46.298;11.506;2023-01-28T05:58:32;89238.88;;;-6.97;83.07
46782;BME280;32541;46.298;11.506;2023-01-28T06:00:58;89242.53;;;-7.00;82.52
46782;BME280;32541;46.298;11.506;2023-01-28T06:03:24;89256.63;;;-6.94;82.04
46782;BME280;32541;46.298;11.506;2023-01-28T06:05:49;89255.84;;;-7.06;82.14
46782;BME280;32541;46.298;11.506;2023-01-28T06:08:15;89254.09;;;-7.14;82.27
46782;BME280;32541;46.298;11.506;2023-01-28T06:10:40;89251.88;;;-7.21;81.29
46782;BME280;32541;46.298;11.506;2023-01-28T06:13:05;89255.81;;;-7.17;81.67
46782;BME280;32541;46.298;11.506;2023-01-28T06:15:31;89260.19;;;-7.14;80.98
46782;BME280;32541;46.298;11.506;2023-01-28T06:17:56;89266.69;;;-7.20;81.08
46782;BME280;32541;46.298;11.506;2023-01-28T06:20:22;89268.44;;;-7.12;80.83
46782;BME280;32541;46.298;11.506;2023-01-28T06:22:50;89274.25;;;-7.19;80.77
46782;BME280;32541;46.298;11.506;2023-01-28T06:25:16;89274.91;;;-7.29;81.46
46782;BME280;32541;46.298;11.506;2023-01-28T06:27:41;89277.09;;;-7.28;81.61
46782;BME280;32541;46.298;11.506;2023-01-28T06:30:07;89271.28;;;-7.26;81.33
46782;BME280;32541;46.298;11.506;2023-01-28T06:32:32;89275.13;;;-7.33;81.23
46782;BME280;32541;46.298;11.506;2023-01-28T06:34:58;89280.28;;;-7.24;80.77
46782;BME280;32541;46.298;11.506;2023-01-28T06:37:24;89283.72;;;-7.18;80.62
46782;BME280;32541;46.298;11.506;2023-01-28T06:39:49;89286.06;;;-7.31;80.92
46782;BME280;32541;46.298;11.506;2023-01-28T06:42:14;89296.47;;;-7.33;81.00
46782;BME280;32541;46.298;11.506;2023-01-28T06:44:40;89293.38;;;-7.26;84.94
46782;BME280;32541;46.298;11.506;2023-01-28T06:47:05;89292.94;;;-7.19;82.68
46782;BME280;32541;46.298;11.506;2023-01-28T06:49:31;89289.13;;;-7.07;81.13
46782;BME280;32541;46.298;11.506;2023-01-28T06:51:56;89292.31;;;-7.03;80.28
46782;BME280;32541;46.298;11.506;2023-01-28T06:54:22;89302.50;;;-7.07;80.40
46782;BME280;32541;46.298;11.506;2023-01-28T06:56:47;89300.59;;;-7.01;80.12
46782;BME280;32541;46.298;11.506;2023-01-28T06:59:12;89308.84;;;-6.99;79.78
46782;BME280;32541;46.298;11.506;2023-01-28T07:01:38;89298.47;;;-6.86;79.59
46782;BME280;32541;46.298;11.506;2023-01-28T07:04:03;89304.75;;;-6.89;79.48
46782;BME280;32541;46.298;11.506;2023-01-28T07:06:29;89304.25;;;-6.98;79.65
46782;BME280;32541;46.298;11.506;2023-01-28T07:08:54;89311.56;;;-6.93;79.88
46782;BME280;32541;46.298;11.506;2023-01-28T07:11:19;89322.47;;;-6.97;80.00
46782;BME280;32541;46.298;11.506;2023-01-28T07:13:45;89320.69;;;-7.11;80.60
46782;BME280;32541;46.298;11.506;2023-01-28T07:16:11;89321.00;;;-6.98;79.74
46782;BME280;32541;46.298;11.506;2023-01-28T07:18:37;89325.38;;;-6.95;80.33
46782;BME280;32541;46.298;11.506;2023-01-28T07:21:02;89326.84;;;-6.94;79.89
46782;BME280;32541;46.298;11.506;2023-01-28T07:23:28;89329.50;;;-6.99;80.14
46782;BME280;32541;46.298;11.506;2023-01-28T07:25:53;89331.00;;;-6.93;80.15
46782;BME280;32541;46.298;11.506;2023-01-28T07:28:19;89333.41;;;-6.95;80.10
46782;BME280;32541;46.298;11.506;2023-01-28T07:30:52;89332.56;;;-6.75;79.47
46782;BME280;32541;46.298;11.506;2023-01-28T07:33:17;89336.00;;;-6.63;79.29
46782;BME280;32541;46.298;11.506;2023-01-28T07:35:43;89328.22;;;-6.61;78.80
46782;BME280;32541;46.298;11.506;2023-01-28T07:38:09;89337.03;;;-6.50;78.67
46782;BME280;32541;46.298;11.506;2023-01-28T07:40:34;89337.06;;;-6.44;78.06
46782;BME280;32541;46.298;11.506;2023-01-28T07:42:59;89329.59;;;-6.29;78.18
46782;BME280;32541;46.298;11.506;2023-01-28T07:45:25;89327.75;;;-5.84;77.42
46782;BME280;32541;46.298;11.506;2023-01-28T07:47:55;89336.53;;;-5.89;77.54
46782;BME280;32541;46.298;11.506;2023-01-28T07:50:21;89340.66;;;-5.83;77.16
46782;BME280;32541;46.298;11.506;2023-01-28T07:52:47;89334.38;;;-5.57;75.78
46782;BME280;32541;46.298;11.506;2023-01-28T07:55:12;89335.59;;;-5.25;76.20
46782;BME280;32541;46.298;11.506;2023-01-28T07:57:48;89335.09;;;-4.85;73.37
46782;BME280;32541;46.298;11.506;2023-01-28T08:00:14;89333.81;;;-4.39;70.70
46782;BME280;32541;46.298;11.506;2023-01-28T08:02:39;89336.34;;;-2.84;64.91
46782;BME280;32541;46.298;11.506;2023-01-28T08:05:05;89335.84;;;-1.61;61.04
46782;BME280;32541;46.298;11.506;2023-01-28T08:07:30;89334.28;;;-0.11;56.57
46782;BME280;32541;46.298;11.506;2023-01-28T08:09:56;89325.22;;;1.54;53.12
46782;BME280;32541;46.298;11.506;2023-01-28T08:12:21;89324.94;;;3.36;51.04
46782;BME280;32541;46.298;11.506;2023-01-28T08:14:47;89326.88;;;4.87;47.07
46782;BME280;32541;46.298;11.506;2023-01-28T08:17:12;89312.22;;;5.63;44.80
46782;BME280;32541;46.298;11.506;2023-01-28T08:19:37;89317.41;;;6.08;42.73
46782;BME280;32541;46.298;11.506;2023-01-28T08:22:03;89321.41;;;5.75;43.31
46782;BME280;32541;46.298;11.506;2023-01-28T08:24:28;89319.16;;;6.38;41.43
46782;BME280;32541;46.298;11.506;2023-01-28T08:26:53;89325.66;;;6.84;40.61
46782;BME280;32541;46.298;11.506;2023-01-28T08:29:19;89326.44;;;7.72;39.59
46782;BME280;32541;46.298;11.506;2023-01-28T08:31:44;89334.25;;;6.98;37.37
46782;BME280;32541;46.298;11.506;2023-01-28T08:34:09;89345.59;;;5.38;39.71
46782;BME280;32541;46.298;11.506;2023-01-28T08:36:35;89348.78;;;4.04;42.58
46782;BME280;32541;46.298;11.506;2023-01-28T08:39:00;89359.75;;;2.59;45.24
46782;BME280;32541;46.298;11.506;2023-01-28T08:41:25;89354.38;;;2.10;47.23
46782;BME280;32541;46.298;11.506;2023-01-28T08:43:51;89353.63;;;3.02;45.72
46782;BME280;32541;46.298;11.506;2023-01-28T08:46:16;89352.59;;;3.86;44.78
46782;BME280;32541;46.298;11.506;2023-01-28T08:48:41;89358.56;;;4.37;43.79
46782;BME280;32541;46.298;11.506;2023-01-28T08:51:07;89355.09;;;4.67;43.03
46782;BME280;32541;46.298;11.506;2023-01-28T08:53:34;89350.13;;;4.88;43.19
46782;BME280;32541;46.298;11.506;2023-01-28T08:55:59;89360.56;;;5.22;42.89
46782;BME280;32541;46.298;11.506;2023-01-28T08:58:25;89351.00;;;5.06;41.86
46782;BME280;32541;46.298;11.506;2023-01-28T09:00:50;89364.03;;;4.45;42.74
46782;BME280;32541;46.298;11.506;2023-01-28T09:03:16;89358.19;;;4.48;42.42
46782;BME280;32541;46.298;11.506;2023-01-28T09:05:42;89364.00;;;4.07;43.15
46782;BME280;32541;46.298;11.506;2023-01-28T09:08:10;89361.91;;;2.89;44.92
46782;BME280;32541;46.298;11.506;2023-01-28T09:10:36;89365.13;;;3.30;44.80
46782;BME280;32541;46.298;11.506;2023-01-28T09:13:06;89369.09;;;3.14;44.64
46782;BME280;32541;46.298;11.506;2023-01-28T09:15:33;89368.47;;;2.08;46.64
46782;BME280;32541;46.298;11.506;2023-01-28T09:17:59;89368.75;;;2.82;46.15
46782;BME280;32541;46.298;11.506;2023-01-28T09:20:25;89364.09;;;3.49;45.30
46782;BME280;32541;46.298;11.506;2023-01-28T09:22:51;89365.81;;;3.97;43.90
46782;BME280;32541;46.298;11.506;2023-01-28T09:25:16;89368.56;;;4.27;43.08
46782;BME280;32541;46.298;11.506;2023-01-28T09:27:41;89370.19;;;4.08;43.94
46782;BME280;32541;46.298;11.506;2023-01-28T09:30:08;89372.50;;;3.07;45.11
46782;BME280;32541;46.298;11.506;2023-01-28T09:32:34;89381.69;;;2.61;46.65
46782;BME280;32541;46.298;11.506;2023-01-28T09:35:00;89377.78;;;2.77;46.19
46782;BME280;32541;46.298;11.506;2023-01-28T09:37:25;89373.22;;;3.08;44.96
46782;BME280;32541;46.298;11.506;2023-01-28T09:39:51;89378.00;;;3.30;44.71
46782;BME280;32541;46.298;11.506;2023-01-28T09:45:22;89387.06;;;0.95;48.97
46782;BME280;32541;46.298;11.506;2023-01-28T09:47:54;89387.94;;;0.12;51.08
46782;BME280;32541;46.298;11.506;2023-01-28T09:50:38;89390.72;;;-1.21;54.03
46782;BME280;32541;46.298;11.506;2023-01-28T09:54:02;89401.00;;;-1.20;54.60
46782;BME280;32541;46.298;11.506;2023-01-28T09:56:18;89397.66;;;-0.57;53.88
46782;BME280;32541;46.298;11.506;2023-01-28T09:58:46;89389.72;;;0.48;51.55
46782;BME280;32541;46.298;11.506;2023-01-28T10:04:14;89376.69;;;1.95;48.11
46782;BME280;32541;46.298;11.506;2023-01-28T10:09:57;89376.91;;;3.25;46.09
46782;BME280;32541;46.298;11.506;2023-01-28T10:17:49;89367.28;;;4.36;43.25
46782;BME280;32541;46.298;11.506;2023-01-28T10:20:20;89360.75;;;3.86;42.49
46782;BME280;32541;46.298;11.506;2023-01-28T10:23:10;89369.59;;;2.69;45.04
46782;BME280;32541;46.298;11.506;2023-01-28T10:25:40;89364.50;;;3.02;45.41
46782;BME280;32541;46.298;11.506;2023-01-28T10:28:27;89365.06;;;2.36;47.62
46782;BME280;32541;46.298;11.506;2023-01-28T10:30:53;89357.91;;;2.82;45.49
46782;BME280;32541;46.298;11.506;2023-01-28T10:33:32;89352.97;;;3.16;42.38
46782;BME280;32541;46.298;11.506;2023-01-28T10:35:59;89352.84;;;2.86;43.68
46782;BME280;32541;46.298;11.506;2023-01-28T10:38:26;89351.03;;;2.53;44.30
46782;BME280;32541;46.298;11.506;2023-01-28T10:40:51;89346.06;;;1.46;46.59
46782;BME280;32541;46.298;11.506;2023-01-28T10:43:24;89354.06;;;0.97;48.75
46782;BME280;32541;46.298;11.506;2023-01-28T10:46:21;89356.97;;;-0.01;52.04
46782;BME280;32541;46.298;11.506;2023-01-28T10:48:58;89354.88;;;-0.84;53.29
46782;BME280;32541;46.298;11.506;2023-01-28T10:51:31;89344.69;;;-0.60;53.60
46782;BME280;32541;46.298;11.506;2023-01-28T10:53:56;89344.22;;;-0.32;53.13
46782;BME280;32541;46.298;11.506;2023-01-28T10:56:25;89347.25;;;-0.22;53.65
46782;BME280;32541;46.298;11.506;2023-01-28T10:59:04;89343.22;;;-0.16;53.07
46782;BME280;32541;46.298;11.506;2023-01-28T11:04:23;89349.09;;;-1.07;53.30
46782;BME280;32541;46.298;11.506;2023-01-28T11:07:16;89341.56;;;-0.64;53.10
46782;BME280;32541;46.298;11.506;2023-01-28T11:09:47;89336.16;;;-0.64;53.59
46782;BME280;32541;46.298;11.506;2023-01-28T11:17:20;89332.84;;;-0.88;51.64
46782;BME280;32541;46.298;11.506;2023-01-28T11:19:48;89328.22;;;-1.06;52.46
46782;BME280;32541;46.298;11.506;2023-01-28T11:24:54;89329.47;;;-1.07;53.29
46782;BME280;32541;46.298;11.506;2023-01-28T11:27:25;89321.75;;;-1.17;52.09
46782;BME280;32541;46.298;11.506;2023-01-28T11:29:52;89320.69;;;-0.95;52.24
46782;BME280;32541;46.298;11.506;2023-01-28T11:32:19;89312.44;;;-0.84;51.47
46782;BME280;32541;46.298;11.506;2023-01-28T11:34:53;89306.00;;;-0.81;50.41
46782;BME280;32541;46.298;11.506;2023-01-28T11:37:23;89307.28;;;-0.69;50.09
46782;BME280;32541;46.298;11.506;2023-01-28T11:40:22;89303.53;;;0.06;48.18
46782;BME280;32541;46.298;11.506;2023-01-28T11:42:52;89293.31;;;0.25;46.54
46782;BME280;32541;46.298;11.506;2023-01-28T11:45:34;89295.75;;;0.62;45.87
46782;BME280;32541;46.298;11.506;2023-01-28T11:48:18;89291.00;;;0.89;46.49
46782;BME280;32541;46.298;11.506;2023-01-28T12:01:11;89276.78;;;1.30;44.42
46782;BME280;32541;46.298;11.506;2023-01-28T12:20:48;89258.34;;;2.05;44.05
46782;BME280;32541;46.298;11.506;2023-01-28T12:26:15;89246.00;;;2.25;45.70
46782;BME280;32541;46.298;11.506;2023-01-28T12:41:48;89237.22;;;3.13;40.71
46782;BME280;32541;46.298;11.506;2023-01-28T12:44:26;89230.81;;;2.30;42.05
46782;BME280;32541;46.298;11.506;2023-01-28T12:46:59;89225.16;;;2.20;40.90
46782;BME280;32541;46.298;11.506;2023-01-28T12:49:36;89223.22;;;2.79;40.03
46782;BME280;32541;46.298;11.506;2023-01-28T12:52:12;89223.13;;;3.22;40.61
46782;BME280;32541;46.298;11.506;2023-01-28T12:55:02;89232.75;;;3.91;39.17
46782;BME280;32541;46.298;11.506;2023-01-28T12:57:30;89223.47;;;3.95;38.15
46782;BME280;32541;46.298;11.506;2023-01-28T13:00:05;89225.66;;;3.81;39.25
46782;BME280;32541;46.298;11.506;2023-01-28T13:02:43;89228.91;;;3.11;39.91
46782;BME280;32541;46.298;11.506;2023-01-28T13:05:16;89224.00;;;2.08;41.50
46782;BME280;32541;46.298;11.506;2023-01-28T13:07:52;89227.16;;;1.84;42.94
46782;BME280;32541;46.298;11.506;2023-01-28T13:10:35;89229.66;;;1.33;43.52
46782;BME280;32541;46.298;11.506;2023-01-28T13:13:03;89229.41;;;1.23;43.55
46782;BME280;32541;46.298;11.506;2023-01-28T13:15:30;89223.56;;;1.40;43.79
46782;BME280;32541;46.298;11.506;2023-01-28T13:18:00;89220.41;;;1.77;43.22
46782;BME280;32541;46.298;11.506;2023-01-28T13:23:44;89223.63;;;2.98;43.07
46782;BME280;32541;46.298;11.506;2023-01-28T13:28:45;89224.41;;;3.82;40.43
46782;BME280;32541;46.298;11.506;2023-01-28T13:31:13;89224.38;;;3.89;40.63
46782;BME280;32541;46.298;11.506;2023-01-28T13:33:45;89231.22;;;4.13;39.90
46782;BME280;32541;46.298;11.506;2023-01-28T13:38:43;89232.72;;;3.99;39.16
46782;BME280;32541;46.298;11.506;2023-01-28T13:41:09;89234.84;;;4.16;39.12
46782;BME280;32541;46.298;11.506;2023-01-28T13:43:39;89230.06;;;4.46;37.50
46782;BME280;32541;46.298;11.506;2023-01-28T13:46:26;89227.97;;;4.70;38.03
46782;BME280;32541;46.298;11.506;2023-01-28T13:48:54;89231.06;;;4.11;39.55
46782;BME280;32541;46.298;11.506;2023-01-28T13:51:32;89226.53;;;4.21;40.17
46782;BME280;32541;46.298;11.506;2023-01-28T13:54:04;89227.81;;;4.13;39.31
46782;BME280;32541;46.298;11.506;2023-01-28T13:56:40;89228.81;;;4.40;39.00
46782;BME280;32541;46.298;11.506;2023-01-28T13:59:26;89237.13;;;4.49;40.54
46782;BME280;32541;46.298;11.506;2023-01-28T14:10:36;89242.72;;;3.74;40.54
46782;BME280;32541;46.298;11.506;2023-01-28T14:13:27;89243.75;;;3.18;41.45
46782;BME280;32541;46.298;11.506;2023-01-28T14:18:47;89240.81;;;3.01;42.31
46782;BME280;32541;46.298;11.506;2023-01-28T14:21:19;89252.66;;;3.49;41.46
46782;BME280;32541;46.298;11.506;2023-01-28T14:23:48;89256.09;;;3.34;41.45
46782;BME280;32541;46.298;11.506;2023-01-28T14:31:38;89248.69;;;2.68;43.48
46782;BME280;32541;46.298;11.506;2023-01-28T14:36:36;89249.91;;;2.52;43.08
46782;BME280;32541;46.298;11.506;2023-01-28T14:39:02;89260.06;;;2.23;44.10
46782;BME280;32541;46.298;11.506;2023-01-28T14:41:28;89265.25;;;2.14;44.48
46782;BME280;32541;46.298;11.506;2023-01-28T14:43:54;89266.78;;;2.22;44.33
46782;BME280;32541;46.298;11.506;2023-01-28T14:46:46;89262.84;;;2.31;44.85
46782;BME280;32541;46.298;11.506;2023-01-28T14:49:34;89271.56;;;2.45;44.83
46782;BME280;32541;46.298;11.506;2023-01-28T14:58:42;89279.06;;;2.59;44.34
46782;BME280;32541;46.298;11.506;2023-01-28T15:14:42;89292.19;;;1.84;46.05
46782;BME280;32541;46.298;11.506;2023-01-28T15:17:21;89292.44;;;1.93;47.46
46782;BME280;32541;46.298;11.506;2023-01-28T15:19:49;89293.69;;;1.92;46.01
46782;BME280;32541;46.298;11.506;2023-01-28T15:22:16;89298.25;;;1.97;47.67
46782;BME280;32541;46.298;11.506;2023-01-28T15:24:42;89295.72;;;1.99;47.09